This is the latest recevied weather packets stored in our database for station/object K5UTC. If no packets are shown the sender has not sent any weather packets the latest 1 day(s).
| Time | Temp. | Humidity | Pressure | Rain* | Wind** | Luminosity | Snow |
|---|---|---|---|---|---|---|---|
| 1778100146 | 20° C | 97% | 1010.8 hPa | 0 mm | - | 50 W/m² | - |
| 1778098329 | 20° C | 97% | 1011.1 hPa | 1.78 mm | - | 91 W/m² | - |
| 1778097419 | 20° C | 97% | 1011.1 hPa | 0 mm | - | 47 W/m² | - |
| 1778096813 | 20° C | 97% | 1011.3 hPa | 0 mm | - | 91 W/m² | - |
| 1778094387 | 20° C | 96% | 1011.7 hPa | 4.32 mm | - | 43 W/m² | - |
| 1778093781 | 20° C | 97% | 1011.6 hPa | 0 mm | - | 105 W/m² | - |
| 1778092568 | 21.11° C | 97% | 1011.3 hPa | 7.87 mm | - | 268 W/m² | - |
| 1778092264 | 20.56° C | 97% | 1011.4 hPa | 10.67 mm | - | 295 W/m² | - |
| 1778091962 | 20.56° C | 97% | 1012.8 hPa | 7.87 mm | - | 56 W/m² | - |
| 1778091053 | 20.56° C | 97% | 1011.5 hPa | 1.27 mm | - | 29 W/m² | - |
| 1778090143 | 20.56° C | 97% | 1011.6 hPa | 1.78 mm | - | 45 W/m² | - |
| 1778086206 | 22.78° C | 91% | 1011.8 hPa | 0 mm | - | 14 W/m² | - |
| 1778084385 | 23.89° C | 87% | 1011.2 hPa | 0 mm | - | 270 W/m² | - |
| 1778083478 | 24.44° C | 87% | 1011.4 hPa | 0 mm | - | 391 W/m² | - |
| 1778083175 | 23.89° C | 87% | 1011.3 hPa | 0 mm | - | 296 W/m² | - |
| 1778081754 | 24.44° C | 85% | 1011.2 hPa | 0 mm | - | 502 W/m² | - |
| 1778080846 | 23.89° C | 87% | 1011 hPa | 0 mm | - | 677 W/m² | - |
| 1778080241 | 22.78° C | 91% | 1011.1 hPa | 0 mm | - | 335 W/m² | - |
| 1778079937 | 22.78° C | 89% | 1011.4 hPa | 0 mm | - | 254 W/m² | - |
| 1778079331 | 23.33° C | 91% | 1011.4 hPa | 0 mm | - | 242 W/m² | - |
| 1778077214 | 21.11° C | 97% | 1010.8 hPa | 0 mm | - | 160 W/m² | - |
| 1778075700 | 20° C | 97% | 1011.1 hPa | 9.65 mm | - | 115 W/m² | - |
| 1778074486 | 20° C | 97% | 1012 hPa | 19.81 mm | - | 17 W/m² | - |
| 1778073578 | 20° C | 97% | 1012.5 hPa | 25.91 mm | - | 8 W/m² | - |
| 1778071459 | 20.56° C | 95% | 1011 hPa | 1.27 mm | - | 3 W/m² | - |
* Rain latest hour (hover to see other rain measurements)
** Current wind speed in m/s (hover to see current wind gust speed)